createdAt,value
2023-02-15T00:00:23.166Z,0.51
2023-02-15T00:01:23.179Z,0.50
2023-02-15T00:02:23.337Z,0.51
2023-02-15T00:03:23.242Z,0.51
2023-02-15T00:04:23.133Z,0.51
2023-02-15T00:05:23.156Z,0.51
2023-02-15T00:06:23.121Z,0.51
2023-02-15T00:07:23.167Z,0.51
2023-02-15T00:08:23.125Z,0.50
2023-02-15T00:09:23.201Z,0.51
2023-02-15T00:10:24.246Z,0.50
2023-02-15T00:11:23.177Z,0.51
2023-02-15T00:12:23.194Z,0.50
2023-02-15T00:13:24.164Z,0.52
2023-02-15T00:14:23.050Z,0.52
2023-02-15T00:15:23.074Z,0.52
2023-02-15T00:16:23.070Z,0.52
2023-02-15T00:17:23.052Z,0.53
2023-02-15T00:18:23.111Z,0.52
2023-02-15T00:19:23.039Z,0.53
2023-02-15T00:20:23.077Z,0.53
2023-02-15T00:21:23.138Z,0.51
2023-02-15T00:22:24.037Z,0.52
2023-02-15T00:23:23.059Z,0.52
2023-02-15T00:24:23.005Z,0.52
2023-02-15T00:25:23.020Z,0.52
2023-02-15T00:26:22.981Z,0.51
2023-02-15T00:27:22.995Z,0.51
2023-02-15T00:28:22.978Z,0.51
2023-02-15T00:29:22.995Z,0.51
2023-02-15T00:30:23.198Z,0.52
2023-02-15T00:31:23.246Z,0.52
2023-02-15T00:32:23.037Z,0.52
2023-02-15T00:33:23.134Z,0.50
2023-02-15T00:34:23.054Z,0.52
2023-02-15T00:35:23.084Z,0.52
2023-02-15T00:36:23.081Z,0.51
2023-02-15T00:37:23.057Z,0.51
2023-02-15T00:38:23.114Z,0.52
2023-02-15T00:39:23.064Z,0.51
2023-02-15T00:40:23.126Z,0.51
2023-02-15T00:41:23.100Z,0.52
2023-02-15T00:42:23.087Z,0.52
2023-02-15T00:43:23.095Z,0.52
2023-02-15T00:44:23.157Z,0.51
2023-02-15T00:45:38.534Z,0.51
2023-02-15T00:46:23.199Z,0.51
2023-02-15T00:47:23.166Z,0.51
2023-02-15T00:48:23.513Z,0.52
2023-02-15T00:49:23.376Z,0.52
2023-02-15T00:50:23.965Z,0.51
2023-02-15T00:53:21.362Z,0.50
2023-02-15T00:55:39.827Z,0.50
2023-02-15T00:56:39.446Z,0.50
2023-02-15T00:57:39.452Z,0.50
2023-02-15T00:58:39.453Z,0.50
2023-02-15T00:59:39.610Z,0.50
2023-02-15T01:00:39.460Z,0.49
2023-02-15T01:01:39.440Z,0.50
2023-02-15T01:02:39.433Z,0.50
2023-02-15T01:03:39.428Z,0.50
2023-02-15T01:04:43.388Z,0.50
2023-02-15T01:05:40.074Z,0.50
2023-02-15T01:22:33.360Z,0.50
2023-02-15T01:23:33.378Z,0.50
2023-02-15T01:24:32.994Z,0.50
2023-02-15T01:25:33.151Z,0.50
2023-02-15T01:26:34.280Z,0.50
2023-02-15T01:36:51.475Z,0.51
2023-02-15T01:37:51.474Z,0.52
2023-02-15T01:38:51.484Z,0.51
2023-02-15T01:39:51.460Z,0.50
2023-02-15T01:40:51.806Z,0.51
2023-02-15T01:43:10.559Z,0.50
2023-02-15T01:44:10.361Z,0.50
2023-02-15T01:45:10.375Z,0.50
2023-02-15T01:46:10.393Z,0.50
2023-02-15T01:47:10.476Z,0.50
2023-02-15T01:48:10.341Z,0.50
2023-02-15T01:49:10.294Z,0.51
2023-02-15T01:50:10.293Z,0.50
2023-02-15T01:51:10.326Z,0.50
2023-02-15T01:52:10.270Z,0.51
2023-02-15T01:53:10.262Z,0.50
2023-02-15T01:54:10.283Z,0.51
2023-02-15T01:55:10.265Z,0.51
2023-02-15T01:57:32.553Z,0.50
2023-02-15T01:59:51.679Z,0.50
2023-02-15T02:03:41.641Z,0.50
2023-02-15T02:04:40.805Z,0.50
2023-02-15T02:05:40.844Z,0.50
2023-02-15T02:06:41.001Z,0.50
2023-02-15T02:07:40.875Z,0.50
2023-02-15T02:15:58.211Z,0.50
2023-02-15T02:16:57.751Z,0.50
2023-02-15T02:19:17.663Z,0.50
2023-02-15T02:23:06.367Z,0.50
2023-02-15T02:24:17.562Z,0.50
2023-02-15T02:34:04.077Z,0.50
2023-02-15T02:35:04.059Z,0.50
2023-02-15T02:36:04.233Z,0.51
2023-02-15T02:37:04.268Z,0.51
2023-02-15T02:39:34.462Z,0.50
2023-02-15T02:41:54.144Z,0.50
2023-02-15T02:42:53.603Z,0.50
2023-02-15T02:48:44.589Z,0.50
2023-02-15T02:51:02.967Z,0.50
2023-02-15T02:52:03.825Z,0.50
2023-02-15T02:53:03.087Z,0.50
2023-02-15T02:54:02.825Z,0.50
2023-02-15T02:55:02.775Z,0.50
2023-02-15T02:57:02.838Z,0.51
2023-02-15T02:58:02.668Z,0.50
2023-02-15T02:59:02.740Z,0.50
2023-02-15T03:01:02.747Z,0.50
2023-02-15T03:02:02.647Z,0.51
2023-02-15T03:07:02.667Z,0.52
2023-02-15T03:08:02.670Z,0.51
2023-02-15T03:09:02.774Z,0.52
2023-02-15T03:10:02.713Z,0.51
2023-02-15T03:11:02.821Z,0.50
2023-02-15T03:12:02.726Z,0.51
2023-02-15T03:13:02.790Z,0.50
2023-02-15T03:14:02.909Z,0.50
2023-02-15T03:15:02.885Z,0.50
2023-02-15T03:16:03.162Z,0.51
2023-02-15T03:17:02.886Z,0.50
2023-02-15T03:18:02.982Z,0.52
2023-02-15T03:19:02.936Z,0.52
2023-02-15T03:20:02.973Z,0.50
2023-02-15T03:21:02.987Z,0.50
2023-02-15T03:22:03.008Z,0.51
2023-02-15T03:23:04.076Z,0.51
2023-02-15T03:24:03.154Z,0.51
2023-02-15T03:25:03.131Z,0.51
2023-02-15T03:26:03.510Z,0.52
2023-02-15T03:27:03.221Z,0.51
2023-02-15T03:28:03.450Z,0.51
2023-02-15T03:29:03.385Z,0.51
2023-02-15T03:30:03.463Z,0.52
2023-02-15T03:31:03.567Z,0.51
2023-02-15T03:32:03.531Z,0.51
2023-02-15T03:33:03.443Z,0.52
2023-02-15T03:34:03.554Z,0.51
2023-02-15T03:38:45.560Z,0.50
2023-02-15T03:40:45.090Z,0.50
2023-02-15T03:41:44.904Z,0.50
2023-02-15T03:42:44.963Z,0.50
2023-02-15T03:43:44.996Z,0.50
2023-02-15T03:44:45.082Z,0.50
2023-02-15T03:45:44.894Z,0.51
2023-02-15T03:46:44.886Z,0.50
2023-02-15T03:47:44.862Z,0.51
2023-02-15T03:48:44.848Z,0.50
2023-02-15T03:49:44.850Z,0.50
2023-02-15T03:50:44.818Z,0.50
2023-02-15T03:51:44.873Z,0.51
2023-02-15T03:52:44.794Z,0.50
2023-02-15T03:53:44.871Z,0.50
2023-02-15T03:54:44.913Z,0.51
2023-02-15T03:55:44.793Z,0.52
2023-02-15T03:56:44.799Z,0.51
2023-02-15T03:57:44.766Z,0.50
2023-02-15T03:58:44.768Z,0.51
2023-02-15T03:59:44.754Z,0.53
2023-02-15T04:00:44.873Z,0.51
2023-02-15T04:01:44.749Z,0.51
2023-02-15T04:02:44.747Z,0.51
2023-02-15T04:03:44.750Z,0.51
2023-02-15T04:04:44.698Z,0.51
2023-02-15T04:05:44.752Z,0.52
2023-02-15T04:06:44.739Z,0.51
2023-02-15T04:07:44.711Z,0.52
2023-02-15T04:08:44.702Z,0.51
2023-02-15T04:09:44.692Z,0.51
2023-02-15T04:10:44.786Z,0.51
2023-02-15T04:11:44.683Z,0.52
2023-02-15T04:12:44.699Z,0.54
2023-02-15T04:13:44.666Z,0.52
2023-02-15T04:14:44.673Z,0.52
2023-02-15T04:15:44.663Z,0.52
2023-02-15T04:16:44.711Z,0.52
2023-02-15T04:17:44.637Z,0.53
2023-02-15T04:18:44.629Z,0.53
2023-02-15T04:19:44.635Z,0.54
2023-02-15T04:20:44.605Z,0.53
2023-02-15T04:21:44.617Z,0.54
2023-02-15T04:22:44.673Z,0.53
2023-02-15T04:23:44.737Z,0.53
2023-02-15T04:24:44.778Z,0.54
2023-02-15T04:25:44.860Z,0.53
2023-02-15T04:26:44.939Z,0.53
2023-02-15T04:27:44.928Z,0.54
2023-02-15T04:28:44.998Z,0.54
2023-02-15T04:29:45.038Z,0.54
2023-02-15T04:30:45.102Z,0.53
2023-02-15T04:33:07.418Z,0.50
2023-02-15T04:35:23.439Z,0.50
2023-02-15T04:36:23.184Z,0.50
2023-02-15T04:37:23.626Z,0.50
2023-02-15T04:38:23.212Z,0.50
2023-02-15T04:39:23.099Z,0.50
2023-02-15T04:40:23.193Z,0.51
2023-02-15T04:41:23.095Z,0.50
2023-02-15T04:42:22.996Z,0.50
2023-02-15T04:43:23.086Z,0.50
2023-02-15T04:44:23.030Z,0.51
2023-02-15T04:45:23.089Z,0.50
2023-02-15T04:46:23.082Z,0.51
2023-02-15T04:47:23.039Z,0.51
2023-02-15T04:48:23.010Z,0.51
2023-02-15T04:49:23.233Z,0.51
2023-02-15T04:50:23.044Z,0.51
2023-02-15T04:51:22.978Z,0.51
2023-02-15T04:52:23.026Z,0.53
2023-02-15T04:53:23.012Z,0.51
2023-02-15T04:54:22.973Z,0.50
2023-02-15T04:55:22.972Z,0.51
2023-02-15T04:56:22.920Z,0.52
2023-02-15T04:57:23.015Z,0.52
2023-02-15T04:58:22.922Z,0.50
2023-02-15T04:59:23.131Z,0.50
2023-02-15T05:00:22.929Z,0.51
2023-02-15T05:01:22.981Z,0.51
2023-02-15T05:02:22.857Z,0.51
2023-02-15T05:03:22.958Z,0.52
2023-02-15T05:04:23.082Z,0.51
2023-02-15T05:05:23.006Z,0.51
2023-02-15T05:06:23.083Z,0.50
2023-02-15T05:07:23.163Z,0.51
2023-02-15T05:08:23.196Z,0.52
2023-02-15T05:09:23.260Z,0.51
2023-02-15T05:10:23.373Z,0.50
2023-02-15T05:11:24.333Z,0.54
2023-02-15T05:12:23.403Z,0.52
2023-02-15T05:13:23.484Z,0.53
2023-02-15T05:14:23.810Z,0.52
2023-02-15T05:15:23.625Z,0.54
2023-02-15T05:16:23.722Z,0.52
2023-02-15T05:18:47.732Z,0.50
2023-02-15T05:28:48.362Z,0.50
2023-02-15T05:29:48.485Z,0.50
2023-02-15T05:30:48.312Z,0.50
2023-02-15T05:31:47.422Z,0.50
2023-02-15T05:32:48.270Z,0.50
2023-02-15T05:35:06.627Z,0.50
2023-02-15T05:37:25.586Z,0.50
2023-02-15T05:39:44.605Z,0.50
2023-02-15T05:42:54.260Z,0.50
2023-02-15T05:45:59.537Z,0.50
2023-02-15T05:48:16.786Z,0.50
2023-02-15T05:50:35.878Z,0.50
2023-02-15T05:51:50.092Z,0.50
2023-02-15T05:52:35.285Z,0.50
2023-02-15T05:53:35.350Z,0.50
2023-02-15T05:54:35.031Z,0.50
2023-02-15T05:55:35.059Z,0.50
2023-02-15T05:56:35.081Z,0.50
2023-02-15T05:57:35.053Z,0.50
2023-02-15T05:58:34.997Z,0.50
2023-02-15T05:59:35.057Z,0.51
2023-02-15T06:01:54.286Z,0.50
2023-02-15T06:02:53.973Z,0.50
2023-02-15T06:03:54.456Z,0.50
2023-02-15T06:04:53.947Z,0.50
2023-02-15T06:05:53.839Z,0.50
2023-02-15T06:06:53.873Z,0.52
2023-02-15T06:07:53.840Z,0.51
2023-02-15T06:08:53.815Z,0.50
2023-02-15T06:09:53.901Z,0.51
2023-02-15T06:10:53.855Z,0.52
2023-02-15T06:11:53.794Z,0.51
2023-02-15T06:12:53.802Z,0.51
2023-02-15T06:13:53.826Z,0.52
2023-02-15T06:14:53.821Z,0.51
2023-02-15T06:15:53.833Z,0.51
2023-02-15T06:16:53.807Z,0.51
2023-02-15T06:17:53.776Z,0.53
2023-02-15T06:18:53.916Z,0.51
2023-02-15T06:19:53.728Z,0.51
2023-02-15T06:20:53.757Z,0.52
2023-02-15T06:21:53.869Z,0.53
2023-02-15T06:22:53.877Z,0.50
2023-02-15T06:23:53.946Z,0.51
2023-02-15T06:24:54.047Z,0.52
2023-02-15T06:25:54.089Z,0.50
2023-02-15T06:26:54.116Z,0.52
2023-02-15T06:27:54.159Z,0.53
2023-02-15T06:28:54.205Z,0.53
2023-02-15T06:29:54.365Z,0.52
2023-02-15T06:30:54.464Z,0.54
2023-02-15T06:31:54.444Z,0.52
2023-02-15T06:34:40.083Z,0.50
2023-02-15T06:36:55.771Z,0.50
2023-02-15T06:39:14.369Z,0.50
2023-02-15T06:41:59.296Z,0.50
2023-02-15T06:42:59.005Z,0.50
2023-02-15T06:43:59.204Z,0.50
2023-02-15T06:47:36.738Z,0.50
2023-02-15T06:48:36.947Z,0.50
2023-02-15T06:49:36.529Z,0.50
2023-02-15T06:50:36.507Z,0.50
2023-02-15T06:51:36.442Z,0.50
2023-02-15T06:52:36.656Z,0.50
2023-02-15T06:53:36.539Z,0.51
2023-02-15T06:54:36.475Z,0.50
2023-02-15T06:55:36.469Z,0.51
2023-02-15T06:56:36.431Z,0.52
2023-02-15T06:57:36.472Z,0.54
2023-02-15T06:58:36.434Z,0.51
2023-02-15T06:59:36.501Z,0.51
2023-02-15T07:00:36.506Z,0.51
2023-02-15T07:01:36.583Z,0.50
2023-02-15T07:02:36.572Z,0.51
2023-02-15T07:03:36.641Z,0.51
2023-02-15T07:04:36.693Z,0.51
2023-02-15T07:05:36.836Z,0.53
2023-02-15T07:06:36.745Z,0.52
2023-02-15T07:07:36.749Z,0.55
2023-02-15T07:08:36.744Z,0.55
2023-02-15T07:09:36.749Z,0.57
2023-02-15T07:10:36.760Z,0.56
2023-02-15T07:11:36.778Z,0.55
2023-02-15T07:12:36.782Z,0.53
2023-02-15T07:13:36.802Z,0.52
2023-02-15T07:14:36.845Z,0.51
2023-02-15T07:15:36.978Z,0.51
2023-02-15T07:16:36.925Z,0.55
2023-02-15T07:17:37.177Z,0.59
2023-02-15T07:18:37.101Z,0.55
2023-02-15T07:19:38.178Z,0.52
2023-02-15T07:20:37.636Z,0.50
2023-02-15T07:21:37.195Z,0.50
2023-02-15T07:22:38.326Z,0.50
2023-02-15T07:23:37.271Z,0.51
2023-02-15T07:24:37.385Z,0.52
2023-02-15T07:25:37.362Z,0.52
2023-02-15T07:26:37.352Z,0.53
2023-02-15T07:27:37.506Z,0.52
2023-02-15T07:28:38.460Z,0.52
2023-02-15T07:29:37.505Z,0.54
2023-02-15T07:30:37.807Z,0.56
2023-02-15T07:31:37.751Z,0.56
2023-02-15T07:32:37.746Z,0.58
2023-02-15T07:33:37.790Z,0.58
2023-02-15T07:34:37.841Z,0.60
2023-02-15T07:35:37.849Z,0.61
2023-02-15T07:36:37.912Z,0.60
2023-02-15T07:37:38.272Z,0.60
2023-02-15T07:38:38.090Z,0.59
2023-02-15T07:39:38.096Z,0.59
2023-02-15T07:40:38.309Z,0.59
2023-02-15T07:41:38.294Z,0.58
2023-02-15T07:42:38.214Z,0.58
2023-02-15T07:43:38.224Z,0.58
2023-02-15T07:44:38.365Z,0.58
2023-02-15T07:45:38.345Z,0.65
2023-02-15T07:46:38.400Z,0.75
2023-02-15T07:47:38.367Z,0.67
2023-02-15T07:48:38.388Z,0.68
2023-02-15T07:49:38.441Z,0.67
2023-02-15T07:50:38.460Z,0.65
2023-02-15T07:51:38.525Z,0.63
2023-02-15T07:52:38.678Z,0.63
2023-02-15T07:53:38.770Z,0.69
2023-02-15T07:54:38.705Z,0.65
2023-02-15T07:55:38.743Z,0.60
2023-02-15T07:57:58.020Z,0.50
2023-02-15T08:00:31.471Z,0.50
2023-02-15T08:01:30.978Z,0.50
2023-02-15T08:02:31.226Z,0.50
2023-02-15T08:03:30.960Z,0.50
2023-02-15T08:04:30.904Z,0.50
2023-02-15T08:05:30.908Z,0.50
2023-02-15T08:06:30.889Z,0.52
2023-02-15T08:07:30.927Z,0.50
2023-02-15T08:08:31.166Z,0.50
2023-02-15T08:09:30.956Z,0.51
2023-02-15T08:10:30.976Z,0.50
2023-02-15T08:11:31.177Z,0.51
2023-02-15T08:12:31.035Z,0.51
2023-02-15T08:13:31.094Z,0.51
2023-02-15T08:14:31.146Z,0.51
2023-02-15T08:15:31.154Z,0.50
2023-02-15T08:16:31.255Z,0.50
2023-02-15T08:17:31.437Z,0.50
2023-02-15T08:18:31.360Z,0.50
2023-02-15T08:20:50.791Z,0.50
2023-02-15T08:21:51.553Z,0.50
2023-02-15T08:22:51.377Z,0.50
2023-02-15T08:23:50.426Z,0.50
2023-02-15T08:24:50.440Z,0.50
2023-02-15T08:25:50.323Z,0.56
2023-02-15T08:26:50.620Z,0.58
2023-02-15T08:27:50.297Z,0.59
2023-02-15T08:28:50.741Z,0.61
2023-02-15T08:29:50.299Z,0.63
2023-02-15T08:30:50.366Z,0.67
2023-02-15T08:31:50.397Z,0.68
2023-02-15T08:32:50.360Z,0.65
2023-02-15T08:33:50.334Z,0.85
2023-02-15T08:34:50.313Z,1.21
2023-02-15T08:35:50.302Z,1.07
2023-02-15T08:36:50.249Z,1.03
2023-02-15T08:37:50.432Z,0.95
2023-02-15T08:40:50.242Z,0.71
2023-02-15T08:41:50.189Z,0.69
2023-02-15T09:23:52.048Z,0.50
2023-02-15T09:24:51.315Z,0.50
2023-02-15T09:25:51.545Z,0.50
2023-02-15T09:26:51.137Z,0.50
2023-02-15T09:27:51.086Z,0.50
2023-02-15T09:28:51.194Z,0.50
2023-02-15T09:29:51.234Z,0.46
2023-02-15T09:30:51.258Z,0.49
2023-02-15T09:31:51.450Z,0.50
2023-02-15T09:32:51.299Z,0.54
2023-02-15T09:33:51.401Z,0.50
2023-02-15T09:34:51.335Z,0.51
2023-02-15T09:35:51.445Z,0.50
2023-02-15T09:36:51.485Z,0.51
2023-02-15T09:37:51.561Z,0.52
2023-02-15T09:38:51.628Z,0.49
2023-02-15T09:39:51.682Z,0.50
2023-02-15T09:40:51.752Z,0.52
2023-02-15T09:41:51.742Z,0.50
2023-02-15T09:42:51.770Z,0.50
2023-02-15T09:43:51.783Z,0.54
2023-02-15T09:44:51.692Z,0.55
2023-02-15T09:45:51.750Z,0.57
2023-02-15T09:46:51.793Z,0.55
2023-02-15T09:47:51.738Z,0.58
2023-02-15T09:48:52.824Z,0.60
2023-02-15T09:49:51.813Z,0.61
2023-02-15T09:50:51.886Z,0.57
2023-02-15T09:51:51.927Z,0.60
2023-02-15T09:52:51.918Z,0.53
2023-02-15T09:53:51.971Z,0.49
2023-02-15T09:54:51.970Z,0.52
2023-02-15T09:57:11.556Z,0.50
2023-02-15T09:58:11.778Z,0.50
2023-02-15T10:00:11.133Z,0.50
2023-02-15T10:01:11.231Z,0.50
2023-02-15T10:02:11.020Z,0.50
2023-02-15T10:03:10.999Z,0.55
2023-02-15T10:04:11.108Z,0.50
2023-02-15T10:14:11.037Z,0.58
2023-02-15T10:15:10.948Z,0.60
2023-02-15T10:16:11.151Z,0.52
2023-02-15T10:17:11.070Z,0.51
2023-02-15T10:18:10.875Z,0.51
2023-02-15T10:19:11.088Z,0.55
2023-02-15T10:20:11.096Z,0.60
2023-02-15T10:21:11.029Z,0.52
2023-02-15T10:22:10.931Z,0.50
2023-02-15T10:23:10.928Z,0.50
2023-02-15T10:24:11.109Z,0.50
2023-02-15T10:25:10.881Z,0.51
2023-02-15T10:26:10.917Z,0.53
2023-02-15T10:27:10.867Z,0.50
2023-02-15T10:28:12.006Z,0.52
2023-02-15T10:29:11.022Z,0.51
2023-02-15T10:30:10.937Z,0.58
2023-02-15T10:31:11.138Z,0.65
2023-02-15T10:32:10.881Z,0.73
2023-02-15T10:33:10.776Z,0.58
2023-02-15T10:34:10.819Z,0.62
2023-02-15T10:35:11.896Z,0.93
2023-02-15T10:36:10.804Z,0.74
2023-02-15T10:37:10.830Z,0.67
2023-02-15T10:38:10.904Z,0.65
2023-02-15T10:39:10.875Z,0.64
2023-02-15T10:41:29.868Z,0.50
2023-02-15T10:42:29.802Z,0.50
2023-02-15T10:43:29.744Z,0.50
2023-02-15T10:44:29.741Z,0.50
2023-02-15T10:45:30.280Z,0.50
2023-02-15T10:46:30.251Z,0.48
2023-02-15T10:47:29.826Z,0.53
2023-02-15T10:48:29.890Z,0.60
2023-02-15T10:49:30.523Z,0.86
2023-02-15T10:50:29.933Z,0.76
2023-02-15T10:51:30.150Z,0.64
2023-02-15T10:52:29.865Z,1.08
2023-02-15T10:53:29.866Z,0.87
2023-02-15T10:54:29.932Z,0.76
2023-02-15T10:55:29.950Z,0.65
2023-02-15T10:56:29.995Z,0.56
2023-02-15T10:57:30.058Z,0.54
2023-02-15T10:58:30.114Z,0.38
2023-02-15T10:59:30.201Z,0.79
2023-02-15T11:00:30.207Z,0.51
2023-02-15T11:01:30.374Z,0.78
2023-02-15T11:02:31.139Z,0.65
2023-02-15T11:03:30.506Z,0.65
2023-02-15T11:04:30.422Z,0.41
2023-02-15T11:05:31.478Z,0.41
2023-02-15T11:06:30.534Z,0.60
2023-02-15T11:07:30.644Z,1.06
2023-02-15T11:09:50.166Z,0.50
2023-02-15T11:10:49.862Z,0.50
2023-02-15T11:11:49.885Z,0.50
2023-02-15T11:14:08.591Z,0.50
2023-02-15T11:15:08.420Z,0.50
2023-02-15T11:16:08.362Z,0.50
2023-02-15T11:17:08.374Z,0.50
2023-02-15T11:18:08.324Z,0.50
2023-02-15T11:19:08.329Z,0.57
2023-02-15T11:20:08.519Z,0.64
2023-02-15T11:21:08.340Z,0.61
2023-02-15T11:22:08.331Z,0.59
2023-02-15T11:23:08.335Z,0.63
2023-02-15T11:24:08.279Z,0.66
2023-02-15T11:25:08.340Z,0.69
2023-02-15T11:26:08.376Z,0.69
2023-02-15T11:27:08.301Z,0.70
2023-02-15T11:28:08.273Z,0.72
2023-02-15T11:29:08.255Z,0.72
2023-02-15T11:30:08.297Z,0.78
2023-02-15T11:31:08.310Z,0.80
2023-02-15T11:33:08.250Z,0.80
2023-02-15T11:34:08.251Z,0.81
2023-02-15T11:35:08.284Z,0.82
2023-02-15T11:36:08.431Z,0.84
2023-02-15T11:37:08.246Z,0.85
2023-02-15T11:38:08.496Z,0.86
2023-02-15T11:39:08.233Z,0.54
2023-02-15T11:40:08.165Z,0.87
2023-02-15T11:41:08.182Z,1.00
2023-02-15T11:42:08.247Z,0.40
2023-02-15T11:43:08.149Z,0.34
2023-02-15T11:44:09.402Z,0.34
2023-02-15T11:46:27.610Z,0.50
2023-02-15T11:47:27.428Z,0.50
2023-02-15T11:48:27.067Z,0.50
2023-02-15T11:49:27.334Z,0.50
2023-02-15T11:50:29.003Z,0.50
2023-02-15T11:51:27.238Z,0.50
2023-02-15T11:52:27.264Z,0.50
2023-02-15T11:53:27.250Z,0.47
2023-02-15T11:54:27.271Z,0.47
2023-02-15T11:55:27.220Z,0.49
2023-02-15T11:56:27.260Z,0.48
2023-02-15T11:57:27.293Z,0.52
2023-02-15T11:58:27.301Z,0.66
2023-02-15T11:59:27.337Z,0.79
2023-02-15T12:00:27.411Z,0.78
2023-02-15T12:02:47.019Z,0.50
2023-02-15T12:05:06.248Z,0.50
2023-02-15T12:06:05.540Z,0.50
2023-02-15T12:07:05.480Z,0.50
2023-02-15T12:08:05.441Z,0.50
2023-02-15T12:09:05.752Z,0.50
2023-02-15T12:10:05.761Z,0.51
2023-02-15T12:11:05.587Z,0.78
2023-02-15T12:12:06.018Z,1.10
2023-02-15T12:13:05.418Z,1.35
2023-02-15T12:14:05.523Z,1.86
2023-02-15T12:15:05.457Z,1.65
2023-02-15T12:16:05.431Z,1.34
2023-02-15T12:17:05.330Z,1.27
2023-02-15T12:18:05.330Z,1.08
2023-02-15T12:19:05.331Z,1.40
2023-02-15T12:20:05.376Z,2.01
2023-02-15T12:21:05.354Z,2.20
2023-02-15T12:22:05.335Z,1.90
2023-02-15T12:23:05.296Z,1.04
2023-02-15T12:24:05.331Z,0.75
2023-02-15T12:25:05.410Z,0.64
2023-02-15T12:26:05.497Z,0.59
2023-02-15T12:27:05.570Z,0.74
2023-02-15T12:28:05.587Z,0.73
2023-02-15T12:29:05.622Z,0.89
2023-02-15T12:30:05.704Z,0.92
2023-02-15T12:31:06.001Z,0.81
2023-02-15T12:32:05.897Z,0.80
2023-02-15T12:33:05.841Z,0.91
2023-02-15T12:34:05.872Z,0.88
2023-02-15T12:35:05.927Z,0.87
2023-02-15T12:36:05.973Z,0.92
2023-02-15T12:37:06.104Z,0.86
2023-02-15T12:38:06.106Z,0.92
2023-02-15T12:39:06.110Z,0.84
2023-02-15T12:49:06.151Z,0.89
2023-02-15T12:55:06.772Z,1.98
2023-02-15T12:56:06.712Z,4.27
2023-02-15T12:57:06.521Z,14.28
2023-02-15T12:58:06.521Z,24.95
2023-02-15T12:59:06.654Z,33.89
2023-02-15T13:00:06.529Z,29.29
2023-02-15T13:01:06.606Z,33.86
2023-02-15T13:02:06.967Z,40.24
2023-02-15T13:03:06.608Z,41.86
2023-02-15T13:04:06.886Z,25.84
2023-02-15T13:05:06.674Z,20.49
2023-02-15T13:06:06.671Z,13.76
2023-02-15T13:07:06.737Z,8.25
2023-02-15T13:08:06.761Z,6.99
2023-02-15T13:09:06.861Z,6.50
2023-02-15T13:10:06.828Z,9.69
2023-02-15T13:11:06.904Z,14.98
2023-02-15T13:12:06.868Z,16.13
2023-02-15T13:13:06.858Z,11.55
2023-02-15T13:14:06.901Z,7.43
2023-02-15T13:15:06.900Z,5.66
2023-02-15T13:16:07.029Z,4.27
2023-02-15T13:17:08.868Z,2.94
2023-02-15T13:18:06.973Z,2.83
2023-02-15T13:19:07.018Z,2.43
2023-02-15T13:20:07.057Z,2.18
2023-02-15T13:21:07.084Z,1.78
2023-02-15T13:22:07.100Z,1.26
2023-02-15T13:23:07.102Z,1.21
2023-02-15T13:24:07.339Z,1.44
2023-02-15T13:25:07.370Z,2.23
2023-02-15T13:26:07.247Z,3.72
2023-02-15T13:27:15.379Z,4.33
2023-02-15T13:28:08.155Z,4.37
2023-02-15T13:29:07.206Z,3.82
2023-02-15T13:30:07.245Z,4.14
2023-02-15T13:31:07.173Z,4.23
2023-02-15T13:32:07.273Z,6.18
2023-02-15T13:33:08.163Z,5.65
2023-02-15T13:34:07.176Z,4.62
2023-02-15T13:35:07.109Z,4.22
2023-02-15T13:36:07.141Z,6.24
2023-02-15T13:37:07.119Z,8.45
2023-02-15T13:38:07.177Z,7.89
2023-02-15T13:39:07.206Z,4.06
2023-02-15T13:40:07.229Z,1.37
2023-02-15T13:41:07.354Z,0.68
2023-02-15T13:42:07.419Z,0.49
2023-02-15T13:43:07.463Z,0.55
2023-02-15T13:44:07.458Z,0.82
2023-02-15T13:45:07.302Z,1.45
2023-02-15T13:46:07.501Z,1.41
2023-02-15T13:47:07.480Z,1.56
2023-02-15T13:48:07.550Z,1.70
2023-02-15T13:49:08.190Z,3.07
2023-02-15T13:50:07.796Z,3.17
2023-02-15T13:51:08.945Z,1.73
2023-02-15T13:52:07.540Z,1.95
2023-02-15T13:53:07.580Z,2.42
2023-02-15T13:54:07.583Z,2.44
2023-02-15T13:55:07.593Z,1.75
2023-02-15T13:56:07.944Z,1.79
2023-02-15T13:57:07.651Z,1.80
2023-02-15T13:58:08.788Z,3.07
2023-02-15T13:59:07.846Z,2.53
2023-02-15T14:00:07.640Z,5.58
2023-02-15T14:01:07.884Z,9.88
2023-02-15T14:02:07.682Z,10.81
2023-02-15T14:03:07.841Z,20.27
2023-02-15T14:04:07.853Z,3.79
2023-02-15T14:05:07.917Z,6.67
2023-02-15T14:06:08.005Z,8.93
2023-02-15T14:07:07.975Z,6.26
2023-02-15T14:08:08.964Z,10.42
2023-02-15T14:09:07.936Z,9.66
2023-02-15T14:10:07.967Z,18.55
2023-02-15T14:11:07.964Z,21.68
2023-02-15T14:12:07.951Z,10.95
2023-02-15T14:13:08.114Z,30.11
2023-02-15T14:14:08.174Z,20.26
2023-02-15T14:15:08.146Z,12.06
2023-02-15T14:16:08.243Z,6.48
2023-02-15T14:17:08.214Z,5.42
2023-02-15T14:18:08.174Z,5.86
2023-02-15T14:19:08.218Z,3.63
2023-02-15T14:20:08.364Z,2.85
2023-02-15T14:21:08.529Z,2.81
2023-02-15T14:22:08.624Z,10.19
2023-02-15T14:23:08.420Z,19.43
2023-02-15T14:24:08.436Z,24.24
2023-02-15T14:25:08.439Z,32.28
2023-02-15T14:26:08.456Z,37.13
2023-02-15T14:27:08.455Z,48.44
2023-02-15T14:28:08.452Z,50.94
2023-02-15T14:29:08.515Z,57.05
2023-02-15T14:30:08.679Z,55.59
2023-02-15T14:31:08.733Z,58.98
2023-02-15T14:32:08.865Z,57.40
2023-02-15T14:33:08.797Z,64.13
2023-02-15T14:34:08.802Z,66.00
2023-02-15T14:35:08.811Z,66.19
2023-02-15T14:36:08.811Z,70.23
2023-02-15T14:37:08.865Z,73.50
2023-02-15T14:38:08.897Z,75.60
2023-02-15T14:39:08.857Z,76.21
2023-02-15T14:40:08.908Z,77.31
2023-02-15T14:41:08.971Z,28.62
2023-02-15T14:42:08.956Z,24.02
2023-02-15T14:43:09.014Z,45.58
2023-02-15T14:44:09.006Z,71.42
2023-02-15T14:45:09.184Z,39.71
2023-02-15T14:46:09.128Z,22.15
2023-02-15T14:47:09.184Z,10.00
2023-02-15T14:48:09.158Z,4.12
2023-02-15T14:49:09.216Z,2.25
2023-02-15T14:50:09.305Z,1.39
2023-02-15T14:51:09.235Z,1.91
2023-02-15T14:52:09.323Z,6.06
2023-02-15T14:53:09.305Z,5.69
2023-02-15T14:54:09.402Z,14.09
2023-02-15T14:55:09.353Z,30.43
2023-02-15T14:56:09.413Z,33.02
2023-02-15T14:57:09.460Z,32.30
2023-02-15T14:58:09.430Z,36.28
2023-02-15T14:59:09.458Z,40.90
2023-02-15T15:00:09.536Z,41.77
2023-02-15T15:01:09.673Z,48.27
2023-02-15T15:02:09.719Z,50.42
2023-02-15T15:03:09.675Z,58.14
2023-02-15T15:04:09.929Z,61.16
2023-02-15T15:05:09.741Z,64.37
2023-02-15T15:06:10.001Z,66.43
2023-02-15T15:07:09.756Z,67.03
2023-02-15T15:08:09.769Z,72.65
2023-02-15T15:09:09.760Z,75.30
2023-02-15T15:10:09.821Z,80.38
2023-02-15T15:11:09.834Z,69.60
2023-02-15T15:12:09.791Z,23.58
2023-02-15T15:13:09.836Z,3.29
2023-02-15T15:14:09.902Z,1.64
2023-02-15T15:16:09.996Z,0.82
2023-02-15T15:17:09.960Z,0.71
2023-02-15T15:18:10.033Z,0.77
2023-02-15T15:19:10.123Z,0.84
2023-02-15T15:20:10.142Z,0.91
2023-02-15T15:21:10.203Z,0.97
2023-02-15T15:22:10.173Z,1.14
2023-02-15T15:23:10.178Z,1.33
2023-02-15T15:24:10.209Z,1.57
2023-02-15T15:25:10.190Z,1.60
2023-02-15T15:26:10.152Z,1.71
2023-02-15T15:27:10.166Z,2.14
2023-02-15T15:28:10.215Z,2.64
2023-02-15T15:29:10.277Z,2.83
2023-02-15T15:30:10.276Z,3.17
2023-02-15T15:31:10.349Z,4.29
2023-02-15T15:32:10.395Z,4.56
2023-02-15T15:33:10.347Z,5.78
2023-02-15T15:34:10.311Z,3.07
2023-02-15T15:35:10.325Z,1.91
2023-02-15T15:36:10.330Z,1.09
2023-02-15T15:37:10.368Z,1.02
2023-02-15T15:38:12.798Z,1.08
2023-02-15T15:39:10.636Z,0.94
2023-02-15T15:40:10.683Z,0.75
2023-02-15T15:41:10.781Z,0.61
2023-02-15T15:42:10.850Z,0.49
2023-02-15T15:43:10.875Z,0.49
2023-02-15T15:44:10.889Z,0.52
2023-02-15T15:45:11.996Z,0.56
2023-02-15T15:46:11.004Z,0.67
2023-02-15T15:47:10.954Z,0.77
2023-02-15T15:48:11.104Z,0.86
2023-02-15T15:49:11.050Z,0.93
2023-02-15T15:50:11.111Z,0.99
2023-02-15T15:51:11.199Z,0.88
2023-02-15T15:52:11.185Z,0.97
2023-02-15T15:53:11.259Z,1.22
2023-02-15T15:54:11.337Z,1.42
2023-02-15T15:55:11.389Z,1.32
2023-02-15T15:56:11.411Z,1.10
2023-02-15T16:30:12.666Z,55.07
2023-02-15T16:31:13.203Z,57.82
2023-02-15T16:32:12.799Z,63.99
2023-02-15T16:33:12.774Z,57.27
2023-02-15T16:34:12.828Z,55.80
2023-02-15T16:35:12.774Z,50.15
2023-02-15T16:36:12.867Z,45.99
2023-02-15T16:37:12.828Z,42.32
2023-02-15T16:38:12.854Z,46.48
2023-02-15T16:39:12.807Z,40.40
2023-02-15T16:40:12.852Z,28.27
2023-02-15T16:41:12.928Z,21.70
2023-02-15T16:42:12.968Z,16.50
2023-02-15T16:43:12.951Z,17.60
2023-02-15T16:44:13.032Z,22.46
2023-02-15T16:45:13.125Z,23.02
2023-02-15T16:46:13.188Z,14.57
2023-02-15T16:47:13.182Z,10.63
2023-02-15T16:48:13.242Z,9.81
2023-02-15T16:49:13.238Z,7.61
2023-02-15T16:50:13.271Z,8.59
2023-02-15T16:51:13.280Z,13.04
2023-02-15T16:52:13.297Z,16.86
2023-02-15T16:53:13.310Z,20.61
2023-02-15T16:54:13.354Z,30.60
2023-02-15T16:55:13.322Z,32.50
2023-02-15T16:56:13.316Z,36.44
2023-02-15T16:57:13.334Z,41.49
2023-02-15T16:58:13.372Z,48.42
2023-02-15T16:59:13.431Z,54.16
2023-02-15T17:00:13.410Z,60.58